Time;durP1;ratioP1;P1;durP2;ratioP2;P2;SDS_P1;SDS_P2;PMS_P1;PMS_P2;Temp;Humidity;BMP_temperature;BMP_pressure;BME280_temperature;BME280_humidity;BME280_pressure;Samples;Min_cycle;Max_cycle;Signal;HPM_P1;HPM_P2
2022/03/02 00:00:56;;;;;;;25.33;14.00;;;2.00;59.10;;;;;;5056053;28;20237;-67
2022/03/02 00:03:23;;;;;;;24.17;13.50;;;1.90;59.10;;;;;;5051238;28;20260;-68
2022/03/02 00:05:50;;;;;;;22.33;13.47;;;2.00;59.30;;;;;;5051356;28;20212;-67
2022/03/02 00:08:17;;;;;;;24.33;14.30;;;1.90;59.30;;;;;;5046733;28;20292;-70
2022/03/02 00:10:44;;;;;;;22.83;13.97;;;1.90;59.30;;;;;;5044127;28;20206;-68
2022/03/02 00:13:12;;;;;;;27.73;13.97;;;2.00;59.50;;;;;;5051420;28;20198;-67
2022/03/02 00:15:39;;;;;;;26.23;14.93;;;1.90;59.50;;;;;;5056456;28;20297;-68
2022/03/02 00:18:06;;;;;;;25.63;14.83;;;1.90;59.70;;;;;;5049753;28;20637;-69
2022/03/02 00:20:33;;;;;;;29.30;15.13;;;1.90;59.80;;;;;;5052814;28;20314;-66
2022/03/02 00:23:00;;;;;;;24.67;14.63;;;1.90;59.90;;;;;;5049112;28;20317;-68
2022/03/02 00:25:27;;;;;;;32.37;15.13;;;1.90;60.00;;;;;;5056592;28;20582;-68
2022/03/02 00:27:54;;;;;;;25.33;14.70;;;1.90;60.10;;;;;;5053603;28;20258;-70
2022/03/02 00:30:23;;;;;;;24.03;13.97;;;1.80;60.20;;;;;;5056677;28;20209;-67
2022/03/02 00:32:50;;;;;;;25.90;14.10;;;1.80;60.20;;;;;;5047936;28;20209;-67
2022/03/02 00:35:17;;;;;;;25.80;15.13;;;1.80;60.20;;;;;;5054258;28;20209;-67
2022/03/02 00:37:44;;;;;;;27.73;15.80;;;1.80;60.30;;;;;;5055051;28;20529;-67
2022/03/02 00:40:11;;;;;;;28.70;15.47;;;1.80;60.50;;;;;;5055393;28;20212;-67
2022/03/02 00:42:38;;;;;;;33.27;17.20;;;1.70;60.70;;;;;;5055517;28;20209;-67
2022/03/02 00:45:05;;;;;;;36.13;17.10;;;1.70;60.90;;;;;;5050046;28;20892;-67
2022/03/02 00:47:34;;;;;;;32.33;16.47;;;1.70;61.20;;;;;;5054748;28;20228;-68
2022/03/02 00:50:02;;;;;;;29.33;17.73;;;1.70;61.50;;;;;;5044899;28;20586;-67
2022/03/02 00:52:29;;;;;;;34.40;17.27;;;1.70;61.60;;;;;;5044370;28;20705;-67
2022/03/02 00:54:56;;;;;;;27.87;16.17;;;1.60;61.70;;;;;;5055801;28;20297;-67
2022/03/02 00:57:23;;;;;;;25.73;16.53;;;1.60;62.20;;;;;;5051465;28;20641;-67
2022/03/02 00:59:50;;;;;;;30.20;18.30;;;1.60;61.90;;;;;;5055413;28;20600;-68
2022/03/02 01:02:17;;;;;;;30.63;17.20;;;1.60;62.40;;;;;;5050321;28;20293;-69
2022/03/02 01:04:45;;;;;;;34.50;18.63;;;1.60;63.20;;;;;;5053122;28;20212;-68
2022/03/02 01:07:12;;;;;;;33.37;18.47;;;1.50;62.50;;;;;;5044798;28;20225;-67
2022/03/02 01:09:39;;;;;;;36.13;19.73;;;1.50;62.50;;;;;;5051446;28;20686;-68
2022/03/02 01:12:06;;;;;;;32.10;18.53;;;1.50;62.50;;;;;;5054347;28;20324;-68
2022/03/02 01:14:33;;;;;;;36.37;18.83;;;1.50;62.70;;;;;;5054243;28;20585;-67
2022/03/02 01:17:00;;;;;;;31.40;18.47;;;1.40;63.00;;;;;;5049807;28;20208;-67
2022/03/02 01:19:27;;;;;;;36.50;20.50;;;1.40;63.20;;;;;;5055353;28;20300;-67
2022/03/02 01:21:55;;;;;;;37.23;21.53;;;1.40;63.30;;;;;;5050997;28;20233;-67
2022/03/02 01:24:22;;;;;;;38.50;20.53;;;1.30;63.40;;;;;;5053548;28;20209;-68
2022/03/02 01:26:50;;;;;;;37.27;21.47;;;1.30;63.80;;;;;;5061739;28;20217;-68
2022/03/02 01:29:17;;;;;;;43.07;22.67;;;1.30;64.00;;;;;;5058126;28;20408;-67
2022/03/02 01:31:44;;;;;;;41.03;23.47;;;1.30;64.20;;;;;;5054291;28;20206;-67
2022/03/02 01:34:11;;;;;;;41.17;24.03;;;1.20;64.20;;;;;;5054979;28;20242;-68
2022/03/02 01:36:38;;;;;;;43.77;24.93;;;1.20;64.50;;;;;;5055357;28;20218;-68
2022/03/02 01:39:06;;;;;;;41.23;25.10;;;1.20;64.70;;;;;;5052080;28;20206;-68
2022/03/02 01:41:33;;;;;;;46.60;25.23;;;1.10;64.80;;;;;;5048701;28;20212;-68
2022/03/02 01:44:00;;;;;;;41.10;22.73;;;1.10;65.00;;;;;;5050286;28;20233;-68
2022/03/02 01:46:27;;;;;;;39.50;23.47;;;1.10;65.30;;;;;;5054536;28;20332;-68
2022/03/02 01:48:54;;;;;;;42.20;24.17;;;1.10;65.30;;;;;;5054257;28;20234;-68
2022/03/02 01:51:21;;;;;;;38.80;23.40;;;1.10;65.80;;;;;;5054521;28;20568;-67
2022/03/02 01:53:49;;;;;;;40.70;23.70;;;1.10;66.00;;;;;;5053785;28;20711;-68
2022/03/02 01:56:17;;;;;;;43.97;23.80;;;1.10;66.20;;;;;;5052961;28;20210;-68
2022/03/02 01:58:46;;;;;;;45.60;23.40;;;1.10;66.40;;;;;;5054121;28;20205;-67
2022/03/02 02:01:14;;;;;;;43.43;23.10;;;1.10;66.60;;;;;;5054883;28;20292;-67
2022/03/02 02:03:41;;;;;;;41.40;22.07;;;1.00;66.60;;;;;;5055373;28;20710;-68
2022/03/02 02:06:08;;;;;;;43.67;22.40;;;1.00;66.60;;;;;;5055749;28;20249;-68
2022/03/02 02:08:35;;;;;;;37.70;20.57;;;1.00;66.80;;;;;;5055672;28;20702;-67
2022/03/02 02:11:03;;;;;;;42.80;21.40;;;1.00;66.90;;;;;;5051172;28;20293;-67
2022/03/02 02:13:33;;;;;;;35.20;20.00;;;1.00;66.90;;;;;;5050051;28;20210;-67
2022/03/02 02:16:00;;;;;;;35.40;19.97;;;0.90;66.90;;;;;;5048307;28;20214;-67
2022/03/02 02:18:27;;;;;;;40.20;20.63;;;1.00;66.90;;;;;;5054491;28;20208;-68
2022/03/02 02:20:55;;;;;;;37.43;21.10;;;1.00;66.90;;;;;;5053971;28;20234;-67
2022/03/02 02:23:22;;;;;;;35.37;18.60;;;0.90;66.90;;;;;;5051897;28;20320;-68
2022/03/02 02:25:49;;;;;;;37.93;19.37;;;0.90;66.90;;;;;;5048034;28;20627;-67
2022/03/02 02:28:25;;;;;;;34.47;19.37;;;0.90;66.90;;;;;;5053359;28;20305;-67
2022/03/02 02:30:54;;;;;;;34.87;19.20;;;0.90;66.90;;;;;;5060133;28;20715;-68
2022/03/02 02:33:22;;;;;;;36.47;19.63;;;0.90;67.40;;;;;;5050033;28;20210;-67
2022/03/02 02:35:49;;;;;;;34.43;19.00;;;0.90;67.20;;;;;;5053728;28;20218;-67
2022/03/02 02:38:18;;;;;;;34.43;19.27;;;0.80;67.00;;;;;;5052179;28;20305;-68
2022/03/02 02:40:45;;;;;;;32.80;17.87;;;0.80;67.50;;;;;;5055008;28;20241;-67
2022/03/02 02:43:12;;;;;;;38.10;19.73;;;0.80;68.00;;;;;;5053114;28;20252;-67
2022/03/02 02:45:39;;;;;;;35.63;19.27;;;0.70;68.00;;;;;;5046467;28;20327;-67
2022/03/02 02:48:06;;;;;;;35.50;19.67;;;0.60;68.30;;;;;;5053838;28;20320;-67
2022/03/02 02:50:34;;;;;;;36.27;20.83;;;0.60;68.70;;;;;;5055029;28;20404;-68
2022/03/02 02:53:04;;;;;;;36.77;19.47;;;0.60;69.10;;;;;;5060535;28;20300;-67
2022/03/02 02:55:33;;;;;;;38.60;20.23;;;0.60;69.40;;;;;;5059412;28;20201;-67
2022/03/02 02:58:01;;;;;;;31.63;19.10;;;0.60;69.90;;;;;;5046034;28;20240;-67
2022/03/02 03:00:31;;;;;;;39.30;21.57;;;0.60;69.90;;;;;;5056637;28;20288;-68
2022/03/02 03:03:00;;;;;;;34.97;20.30;;;0.60;70.00;;;;;;5059214;28;20273;-68
2022/03/02 03:05:29;;;;;;;35.23;20.27;;;0.50;70.20;;;;;;5050805;28;20214;-67
2022/03/02 03:07:57;;;;;;;35.13;20.20;;;0.60;70.60;;;;;;5053798;28;20683;-67
2022/03/02 03:10:25;;;;;;;33.30;19.70;;;0.70;70.90;;;;;;5052394;28;20293;-68
2022/03/02 03:12:55;;;;;;;33.53;19.10;;;0.60;70.70;;;;;;5059616;28;20210;-67
2022/03/02 03:15:22;;;;;;;34.97;20.23;;;0.60;70.80;;;;;;5057909;28;20217;-67
2022/03/02 03:17:50;;;;;;;34.50;19.47;;;0.60;71.00;;;;;;5054205;28;20204;-67
2022/03/02 03:20:19;;;;;;;34.37;19.33;;;0.60;71.20;;;;;;5052655;28;20267;-68
2022/03/02 03:22:47;;;;;;;35.33;18.33;;;0.60;71.40;;;;;;5058332;28;20286;-67
2022/03/02 03:25:14;;;;;;;32.07;18.43;;;0.60;71.60;;;;;;5060967;28;20607;-66
2022/03/02 03:27:43;;;;;;;32.87;18.27;;;0.60;71.60;;;;;;5069530;28;20227;-66
2022/03/02 03:30:14;;;;;;;34.83;17.80;;;0.60;71.70;;;;;;5061418;28;20219;-67
2022/03/02 03:32:42;;;;;;;31.97;18.27;;;0.50;72.00;;;;;;5042787;28;20229;-67
2022/03/02 03:35:10;;;;;;;30.23;17.93;;;0.50;72.20;;;;;;5064225;28;20721;-67
2022/03/02 03:37:37;;;;;;;36.83;18.20;;;0.50;72.50;;;;;;5054504;28;20225;-67
2022/03/02 03:40:06;;;;;;;34.57;17.77;;;0.50;72.60;;;;;;5053557;28;20297;-67
2022/03/02 03:42:33;;;;;;;34.77;18.27;;;0.40;72.80;;;;;;5061923;28;20237;-67
2022/03/02 03:45:01;;;;;;;34.50;17.83;;;0.40;73.90;;;;;;5052632;28;20233;-68
2022/03/02 03:47:29;;;;;;;32.77;19.03;;;0.40;73.20;;;;;;5052715;28;20239;-67
2022/03/02 03:49:56;;;;;;;30.67;17.77;;;0.40;73.40;;;;;;5047949;28;20210;-67
2022/03/02 03:52:23;;;;;;;29.10;16.73;;;0.40;73.60;;;;;;5051112;28;20201;-67
2022/03/02 03:54:49;;;;;;;35.50;17.37;;;0.30;73.70;;;;;;5046527;28;20199;-67
2022/03/02 03:57:16;;;;;;;28.70;17.33;;;0.40;74.00;;;;;;5041511;28;20634;-67
2022/03/02 03:59:43;;;;;;;32.23;17.43;;;0.40;74.20;;;;;;5052197;28;20198;-68
2022/03/02 04:02:10;;;;;;;32.87;18.30;;;0.40;74.30;;;;;;5045857;28;20647;-67
2022/03/02 04:04:39;;;;;;;31.00;17.90;;;0.30;74.30;;;;;;5058880;28;20244;-68
2022/03/02 04:07:05;;;;;;;29.00;16.13;;;0.30;74.60;;;;;;5052993;28;20206;-68
2022/03/02 04:09:32;;;;;;;29.27;16.43;;;0.30;74.90;;;;;;5052430;28;20206;-68
2022/03/02 04:11:59;;;;;;;33.80;18.40;;;0.30;75.10;;;;;;5048956;28;20214;-67
2022/03/02 04:14:26;;;;;;;31.23;17.63;;;0.20;75.30;;;;;;5055212;28;20209;-67
2022/03/02 04:16:53;;;;;;;28.07;17.47;;;0.20;75.70;;;;;;5052250;28;20202;-67
2022/03/02 04:19:20;;;;;;;28.43;16.30;;;0.20;76.10;;;;;;5059578;28;20232;-67
2022/03/02 04:21:48;;;;;;;35.63;17.87;;;0.20;76.20;;;;;;5060057;28;20226;-67
2022/03/02 04:24:15;;;;;;;33.77;17.63;;;0.20;76.20;;;;;;5051421;28;20210;-67
2022/03/02 04:26:42;;;;;;;29.97;16.97;;;0.20;77.10;;;;;;5055853;28;20205;-68
2022/03/02 04:29:10;;;;;;;33.00;17.73;;;0.20;77.40;;;;;;5058479;28;20229;-68
2022/03/02 04:31:37;;;;;;;28.60;16.67;;;0.20;77.40;;;;;;5046804;28;20210;-67
2022/03/02 04:34:04;;;;;;;33.37;16.73;;;0.20;77.60;;;;;;5041110;28;20646;-67
2022/03/02 04:36:30;;;;;;;30.17;17.47;;;0.20;77.90;;;;;;5053252;28;20256;-67
2022/03/02 04:38:59;;;;;;;33.70;17.67;;;0.20;78.00;;;;;;5045748;28;20234;-67
2022/03/02 04:41:26;;;;;;;32.83;16.10;;;0.20;78.00;;;;;;5053358;28;20551;-67
2022/03/02 04:43:54;;;;;;;29.63;16.60;;;0.20;78.00;;;;;;5052625;28;20666;-66
2022/03/02 04:46:21;;;;;;;32.60;17.03;;;0.20;78.20;;;;;;5052955;28;20288;-66
2022/03/02 04:48:47;;;;;;;32.13;17.23;;;0.10;79.00;;;;;;5046681;28;20320;-66
2022/03/02 04:51:14;;;;;;;28.03;15.73;;;0.10;79.40;;;;;;5043789;28;20233;-67
2022/03/02 04:53:41;;;;;;;26.23;16.70;;;0.10;79.00;;;;;;5052954;28;20293;-67
2022/03/02 04:56:09;;;;;;;31.53;17.23;;;0.10;79.40;;;;;;5040418;28;20293;-66
2022/03/02 04:58:36;;;;;;;32.77;18.07;;;0.10;79.60;;;;;;5052157;28;20206;-67
2022/03/02 05:01:03;;;;;;;31.00;16.70;;;0.10;80.10;;;;;;5050646;28;20202;-67
2022/03/02 05:03:30;;;;;;;33.50;16.90;;;0.10;80.50;;;;;;5057995;28;20217;-66
2022/03/02 05:05:57;;;;;;;37.43;18.23;;;0.10;80.80;;;;;;5053447;28;20197;-67
2022/03/02 05:08:24;;;;;;;35.20;17.43;;;0.10;81.10;;;;;;5049591;28;20240;-66
2022/03/02 05:10:51;;;;;;;30.63;18.27;;;0.20;81.20;;;;;;5052098;28;20206;-67
2022/03/02 05:13:19;;;;;;;32.97;16.80;;;0.10;81.40;;;;;;5046844;28;20214;-67
2022/03/02 05:15:46;;;;;;;32.83;17.93;;;0.10;81.70;;;;;;5052008;28;20297;-67
2022/03/02 05:18:13;;;;;;;34.93;18.13;;;0.20;82.10;;;;;;5051590;28;20221;-67
2022/03/02 05:20:40;;;;;;;34.07;19.27;;;0.20;82.40;;;;;;5046778;28;20244;-67
2022/03/02 05:23:06;;;;;;;34.57;18.30;;;0.20;82.90;;;;;;5057707;28;20206;-68
2022/03/02 05:25:33;;;;;;;35.33;18.07;;;0.20;83.10;;;;;;5058911;28;20208;-67
2022/03/02 05:28:00;;;;;;;35.23;18.57;;;0.20;83.10;;;;;;5049664;28;20313;-67
2022/03/02 05:30:28;;;;;;;35.97;19.13;;;0.20;83.80;;;;;;5047847;28;20217;-67
2022/03/02 05:32:55;;;;;;;31.30;18.90;;;0.20;83.10;;;;;;5047288;28;20224;-67
2022/03/02 05:35:22;;;;;;;35.97;18.37;;;0.10;83.50;;;;;;5069248;28;20201;-68
2022/03/02 05:37:49;;;;;;;31.27;17.57;;;0.10;84.00;;;;;;5052686;28;20229;-66
2022/03/02 05:40:18;;;;;;;37.00;18.83;;;0.10;84.70;;;;;;5054568;28;20642;-67
2022/03/02 05:42:45;;;;;;;32.80;18.30;;;0.20;85.20;;;;;;5055585;28;20208;-68
2022/03/02 05:45:12;;;;;;;35.13;18.33;;;0.20;85.30;;;;;;5049428;28;20303;-66
2022/03/02 05:47:41;;;;;;;30.03;17.43;;;0.20;85.60;;;;;;5055201;28;20545;-67
2022/03/02 05:50:09;;;;;;;38.63;18.57;;;0.20;85.50;;;;;;5052292;28;20206;-68
2022/03/02 05:52:36;;;;;;;30.67;19.03;;;0.20;86.00;;;;;;5055353;28;20214;-68
2022/03/02 05:55:04;;;;;;;36.80;18.70;;;0.30;86.10;;;;;;5055172;28;20237;-66
2022/03/02 05:57:31;;;;;;;34.00;18.13;;;0.30;86.30;;;;;;5050757;28;20219;-68
2022/03/02 05:59:58;;;;;;;34.27;18.17;;;0.40;87.20;;;;;;5054356;28;20209;-65
2022/03/02 06:02:24;;;;;;;31.40;19.20;;;0.60;87.40;;;;;;5048402;28;20209;-67
2022/03/02 06:04:53;;;;;;;32.50;16.77;;;0.80;87.60;;;;;;5054987;28;20206;-66
2022/03/02 06:07:20;;;;;;;34.70;18.77;;;1.00;86.80;;;;;;5065963;28;20270;-67
2022/03/02 06:09:49;;;;;;;34.67;19.30;;;1.20;86.90;;;;;;5050873;28;20320;-66
2022/03/02 06:12:16;;;;;;;40.37;19.33;;;1.30;85.40;;;;;;5053617;28;20228;-68
2022/03/02 06:14:44;;;;;;;35.77;19.17;;;1.30;84.70;;;;;;5057739;28;20565;-67
2022/03/02 06:17:12;;;;;;;36.70;18.80;;;1.30;84.40;;;;;;5057910;28;20213;-67
2022/03/02 06:19:39;;;;;;;34.63;17.83;;;1.30;84.30;;;;;;5060770;28;20222;-67
2022/03/02 06:22:08;;;;;;;30.43;17.40;;;1.30;83.90;;;;;;5062886;28;20313;-68
2022/03/02 06:24:36;;;;;;;29.53;17.43;;;1.30;83.90;;;;;;5057637;28;20248;-66
2022/03/02 06:27:03;;;;;;;33.20;17.10;;;1.30;84.10;;;;;;5053644;28;20563;-67
2022/03/02 06:29:30;;;;;;;32.37;17.13;;;1.30;84.40;;;;;;5059054;28;20607;-68
2022/03/02 06:31:57;;;;;;;33.97;16.83;;;1.50;84.20;;;;;;5054554;28;20225;-67
2022/03/02 06:34:24;;;;;;;31.93;17.97;;;1.70;83.40;;;;;;5068156;28;20292;-66
2022/03/02 06:36:51;;;;;;;32.43;18.87;;;1.70;82.60;;;;;;5063459;28;20478;-67
2022/03/02 06:39:21;;;;;;;33.40;20.57;;;1.70;82.30;;;;;;5054619;28;20639;-68
2022/03/02 06:42:04;;;;;;;33.37;17.23;;;1.70;82.00;;;;;;5055893;28;20724;-68
2022/03/02 06:44:34;;;;;;;36.30;18.80;;;1.70;81.90;;;;;;5060391;28;20291;-68
2022/03/02 06:47:04;;;;;;;32.17;17.33;;;1.70;81.70;;;;;;5057396;28;20210;-69
2022/03/02 06:49:46;;;;;;;29.70;17.57;;;1.70;81.70;;;;;;5057044;28;20226;-69
2022/03/02 06:52:19;;;;;;;30.97;18.03;;;1.70;82.00;;;;;;5053096;28;20288;-70
2022/03/02 06:54:49;;;;;;;30.47;16.83;;;1.80;82.10;;;;;;5062431;28;20202;-70
2022/03/02 06:57:18;;;;;;;27.37;16.57;;;2.20;82.70;;;;;;5055673;28;20202;-70
2022/03/02 06:59:52;;;;;;;31.77;16.63;;;2.40;81.70;;;;;;5064469;28;20210;-71
2022/03/02 07:02:27;;;;;;;36.53;16.63;;;2.60;80.00;;;;;;5067136;28;20216;-71
2022/03/02 07:04:56;;;;;;;32.27;17.23;;;2.60;78.60;;;;;;5059420;28;20259;-71
2022/03/02 07:07:23;;;;;;;34.70;17.93;;;2.60;78.60;;;;;;5060089;28;20236;-70
2022/03/02 07:09:52;;;;;;;29.80;16.97;;;2.70;78.70;;;;;;5051624;28;20309;-70
2022/03/02 07:12:20;;;;;;;30.93;16.00;;;2.90;78.00;;;;;;5051000;28;20297;-70
2022/03/02 07:14:47;;;;;;;31.67;15.70;;;3.00;77.50;;;;;;5049437;28;20242;-72
2022/03/02 07:17:15;;;;;;;30.80;16.57;;;3.10;77.20;;;;;;5058985;28;20213;-71
2022/03/02 07:19:43;;;;;;;27.30;15.07;;;3.40;76.40;;;;;;5061877;28;20205;-69
2022/03/02 07:22:15;;;;;;;29.63;16.50;;;3.40;75.20;;;;;;5063774;28;20597;-70
2022/03/02 07:24:50;;;;;;;28.10;14.70;;;3.60;74.60;;;;;;5068375;28;20779;-72
2022/03/02 07:27:20;;;;;;;24.47;14.50;;;3.60;73.90;;;;;;5056370;28;20251;-69
2022/03/02 07:29:50;;;;;;;25.50;13.40;;;3.80;74.20;;;;;;5052243;28;20253;-69
2022/03/02 07:32:21;;;;;;;23.07;13.40;;;4.20;73.50;;;;;;5047521;28;20198;-69
2022/03/02 07:34:54;;;;;;;25.10;12.70;;;4.70;71.70;;;;;;5060871;28;20291;-69
2022/03/02 07:37:21;;;;;;;23.57;13.40;;;4.80;69.50;;;;;;5056394;28;20277;-70
2022/03/02 07:39:49;;;;;;;23.57;12.47;;;4.80;68.20;;;;;;5055887;28;20240;-70
2022/03/02 07:42:16;;;;;;;25.67;13.17;;;4.80;67.80;;;;;;5054005;28;20209;-69
2022/03/02 07:44:44;;;;;;;26.43;13.40;;;4.80;67.80;;;;;;5050880;28;20233;-68
2022/03/02 07:47:11;;;;;;;25.00;13.10;;;4.90;67.50;;;;;;5042906;28;20202;-70
2022/03/02 07:49:38;;;;;;;24.37;12.90;;;5.00;66.80;;;;;;5052368;28;20312;-70
2022/03/02 07:52:07;;;;;;;22.43;12.73;;;4.90;66.70;;;;;;5051057;28;20206;-71
2022/03/02 07:54:37;;;;;;;28.70;15.23;;;4.90;65.80;;;;;;5053882;28;20260;-75
2022/03/02 07:57:06;;;;;;;26.93;14.07;;;4.90;66.00;;;;;;5051474;28;20210;-68
2022/03/02 07:59:38;;;;;;;31.27;15.20;;;4.90;66.40;;;;;;5050901;28;20616;-69
2022/03/02 08:02:08;;;;;;;23.30;12.10;;;4.90;66.10;;;;;;5040252;28;20206;-71
2022/03/02 08:04:36;;;;;;;21.00;12.93;;;5.00;65.90;;;;;;5062583;28;20213;-69
2022/03/02 08:07:04;;;;;;;24.50;13.47;;;5.10;65.80;;;;;;5053983;28;20213;-68
2022/03/02 08:09:31;;;;;;;21.57;12.97;;;5.20;65.30;;;;;;5053424;28;20229;-68
2022/03/02 08:12:00;;;;;;;24.33;13.03;;;5.30;65.00;;;;;;5055625;28;20263;-71
2022/03/02 08:14:27;;;;;;;23.37;12.40;;;5.40;64.10;;;;;;5061358;28;20665;-70
2022/03/02 08:16:55;;;;;;;24.93;13.00;;;5.40;63.70;;;;;;5054629;28;20206;-70
2022/03/02 08:19:24;;;;;;;22.53;12.60;;;5.50;63.50;;;;;;5054922;28;20216;-72
2022/03/02 08:21:57;;;;;;;27.03;13.57;;;5.60;63.70;;;;;;5049867;28;20230;-68
2022/03/02 08:24:26;;;;;;;28.20;14.80;;;5.70;63.50;;;;;;5054903;28;20208;-71
2022/03/02 08:26:57;;;;;;;27.57;13.77;;;5.90;64.20;;;;;;5050847;28;20297;-71
2022/03/02 08:29:27;;;;;;;25.43;12.53;;;6.20;63.20;;;;;;5056538;28;20218;-69
2022/03/02 08:31:58;;;;;;;26.37;13.50;;;6.30;62.80;;;;;;5054452;28;21225;-69
2022/03/02 08:34:26;;;;;;;25.53;13.87;;;6.60;62.00;;;;;;5040613;28;20209;-68
2022/03/02 08:36:55;;;;;;;26.20;14.03;;;6.80;61.70;;;;;;5055359;28;20236;-71
2022/03/02 08:39:22;;;;;;;25.93;13.47;;;7.00;60.50;;;;;;5048667;28;20222;-70
2022/03/02 08:41:49;;;;;;;20.57;12.83;;;7.10;61.50;;;;;;5051657;28;20624;-71
2022/03/02 08:44:16;;;;;;;23.87;14.37;;;7.30;60.90;;;;;;5058854;28;20316;-71
2022/03/02 08:46:46;;;;;;;18.27;11.00;;;7.60;60.00;;;;;;5048779;28;20229;-74
2022/03/02 08:49:13;;;;;;;16.67;10.27;;;7.60;58.80;;;;;;5053181;28;20230;-73
2022/03/02 08:51:42;;;;;;;19.97;11.17;;;7.70;59.30;;;;;;5056269;28;20271;-71
2022/03/02 08:54:13;;;;;;;20.70;10.60;;;7.70;59.50;;;;;;5053009;28;20222;-73
2022/03/02 08:56:42;;;;;;;19.70;11.37;;;7.70;59.90;;;;;;5051425;28;20217;-72
2022/03/02 08:59:13;;;;;;;23.47;11.70;;;7.70;59.70;;;;;;5048240;28;20224;-72
2022/03/02 09:01:45;;;;;;;17.43;10.63;;;7.80;60.20;;;;;;5064038;28;20212;-73
2022/03/02 09:04:15;;;;;;;24.73;12.33;;;8.00;61.10;;;;;;5058734;28;20283;-72
2022/03/02 09:06:47;;;;;;;23.13;11.73;;;8.30;60.80;;;;;;5050950;28;20203;-72
2022/03/02 09:09:16;;;;;;;22.43;12.60;;;8.60;59.90;;;;;;5039942;28;20270;-71
2022/03/02 09:11:44;;;;;;;18.50;10.50;;;8.90;59.30;;;;;;5047997;28;20206;-72
2022/03/02 09:14:11;;;;;;;18.10;11.83;;;9.20;59.70;;;;;;5056394;28;20198;-69
2022/03/02 09:16:39;;;;;;;24.63;12.10;;;9.60;60.10;;;;;;5056191;28;20258;-73
2022/03/02 09:19:07;;;;;;;17.93;11.63;;;10.50;59.40;;;;;;5062164;28;20193;-73
2022/03/02 09:21:36;;;;;;;19.13;10.60;;;12.90;60.30;;;;;;5048566;28;20260;-73
2022/03/02 09:24:06;;;;;;;23.17;11.83;;;16.20;50.90;;;;;;5058639;28;20223;-72
2022/03/02 09:26:34;;;;;;;18.87;12.07;;;19.40;43.20;;;;;;5056362;28;20234;-75
2022/03/02 09:29:04;;;;;;;22.05;12.80;;;22.30;37.50;;;;;;5059287;28;20215;-75
2022/03/02 09:31:35;;;;;;;16.20;10.98;;;24.50;33.50;;;;;;5054335;28;20576;-72
2022/03/02 09:34:05;;;;;;;20.50;13.27;;;26.00;30.80;;;;;;5051922;28;20205;-72
2022/03/02 09:36:36;;;;;;;19.90;12.32;;;26.50;29.20;;;;;;5052710;28;20705;-73
2022/03/02 09:39:06;;;;;;;23.13;14.88;;;26.70;28.50;;;;;;5049290;28;20228;-73
2022/03/02 09:41:42;;;;;;;20.15;13.35;;;27.40;27.80;;;;;;5053256;28;20270;-72
2022/03/02 09:44:13;;;;;;;25.05;13.15;;;28.20;27.80;;;;;;5050441;28;20328;-74
2022/03/02 09:46:41;;;;;;;20.55;13.18;;;29.30;26.80;;;;;;5054579;28;20235;-73
2022/03/02 09:49:10;;;;;;;23.23;12.82;;;30.80;25.90;;;;;;5062931;28;20201;-71
2022/03/02 09:51:38;;;;;;;22.20;13.30;;;32.10;24.80;;;;;;5051507;28;20234;-73
2022/03/02 09:54:08;;;;;;;17.08;12.65;;;33.20;23.90;;;;;;5057713;28;20234;-74
2022/03/02 09:56:36;;;;;;;17.42;11.80;;;34.30;23.10;;;;;;5043099;28;20210;-73
2022/03/02 09:59:06;;;;;;;15.95;10.90;;;35.10;22.50;;;;;;5040285;28;20214;-73
2022/03/02 10:01:34;;;;;;;17.83;11.00;;;35.50;21.90;;;;;;5058046;28;20202;-73
2022/03/02 10:04:13;;;;;;;14.80;10.68;;;35.70;21.50;;;;;;5048995;28;20268;-73
2022/03/02 10:06:44;;;;;;;15.27;10.02;;;35.90;21.20;;;;;;5051422;28;20205;-73
2022/03/02 10:09:13;;;;;;;14.38;9.40;;;36.40;20.90;;;;;;5047697;28;20668;-72
2022/03/02 10:11:43;;;;;;;16.13;10.90;;;36.70;20.30;;;;;;5054683;28;20567;-72
2022/03/02 10:14:10;;;;;;;12.93;9.98;;;36.30;20.00;;;;;;5055658;28;20252;-74
2022/03/02 10:16:43;;;;;;;15.15;8.77;;;35.60;20.40;;;;;;5055106;28;20317;-74
2022/03/02 10:19:22;;;;;;;14.25;9.25;;;36.00;20.50;;;;;;5049588;28;20297;-75
2022/03/02 10:22:03;;;;;;;12.95;9.63;;;37.10;20.10;;;;;;5056432;28;20712;-73
2022/03/02 10:24:32;;;;;;;15.40;9.40;;;37.60;19.60;;;;;;5051626;28;20194;-76
2022/03/02 10:27:06;;;;;;;12.93;9.15;;;37.40;19.50;;;;;;5058461;28;20238;-73
2022/03/02 10:29:47;;;;;;;12.98;8.73;;;37.60;19.50;;;;;;5046736;28;20570;-74
2022/03/02 10:32:16;;;;;;;11.77;8.70;;;38.00;19.10;;;;;;5047364;28;20206;-74
2022/03/02 10:34:49;;;;;;;11.25;8.32;;;38.30;19.00;;;;;;5048206;28;20659;-75
2022/03/02 10:37:31;;;;;;;13.52;8.73;;;38.10;18.90;;;;;;5057662;28;20738;-74
2022/03/02 10:40:09;;;;;;;11.07;9.45;;;38.10;18.50;;;;;;5057636;28;20702;-74
2022/03/02 10:42:38;;;;;;;13.30;9.35;;;37.20;18.50;;;;;;5049014;28;20198;-74
2022/03/02 10:45:15;;;;;;;10.85;9.00;;;36.90;19.30;;;;;;5053615;28;20940;-73
2022/03/02 10:47:47;;;;;;;15.05;9.57;;;37.90;19.00;;;;;;5055218;28;20650;-72
2022/03/02 10:50:15;;;;;;;13.30;8.57;;;39.20;18.70;;;;;;5055606;28;20690;-73
2022/03/02 10:52:42;;;;;;;13.70;8.55;;;40.40;18.30;;;;;;5056988;28;20206;-74
2022/03/02 10:55:13;;;;;;;10.43;8.27;;;40.60;17.90;;;;;;5059745;28;20644;-74
2022/03/02 10:57:41;;;;;;;10.63;7.85;;;39.90;17.40;;;;;;5052335;28;20286;-73
2022/03/02 11:00:14;;;;;;;10.85;7.93;;;38.30;17.90;;;;;;5050284;28;20309;-72
2022/03/02 11:02:43;;;;;;;10.30;7.30;;;37.30;18.30;;;;;;5054174;28;20206;-72
2022/03/02 11:05:12;;;;;;;10.57;7.30;;;37.70;18.50;;;;;;5050031;28;20273;-71
2022/03/02 11:07:40;;;;;;;11.63;7.78;;;38.10;18.20;;;;;;5048871;28;20248;-74
2022/03/02 11:10:10;;;;;;;8.43;6.95;;;38.50;18.20;;;;;;5057658;28;20707;-72
2022/03/02 11:12:41;;;;;;;10.52;7.00;;;39.40;17.90;;;;;;5061588;28;20207;-73
2022/03/02 11:15:09;;;;;;;10.50;7.38;;;40.20;17.80;;;;;;5058418;28;20205;-72
2022/03/02 11:17:36;;;;;;;8.40;6.75;;;40.90;17.30;;;;;;5048186;28;20274;-73
2022/03/02 11:20:07;;;;;;;8.70;7.13;;;41.10;17.30;;;;;;5047938;28;20220;-73
2022/03/02 11:22:34;;;;;;;8.63;7.13;;;40.50;17.20;;;;;;5064655;28;20206;-72
2022/03/02 11:25:01;;;;;;;12.43;7.18;;;39.70;17.10;;;;;;5061809;28;20214;-74
2022/03/02 11:27:36;;;;;;;8.60;6.90;;;39.50;17.70;;;;;;5047270;28;20248;-72
2022/03/02 11:30:10;;;;;;;8.30;5.85;;;39.90;17.40;;;;;;5051913;28;20304;-73
2022/03/02 11:32:39;;;;;;;7.18;5.47;;;39.90;17.30;;;;;;5047091;28;20305;-72
2022/03/02 11:35:09;;;;;;;8.68;6.20;;;39.40;16.90;;;;;;5064485;28;20209;-71
2022/03/02 11:37:36;;;;;;;10.30;8.77;;;38.70;17.40;;;;;;5055801;28;20291;-70
2022/03/02 11:40:06;;;;;;;8.25;6.15;;;39.50;17.50;;;;;;5055449;28;20284;-71
2022/03/02 11:42:38;;;;;;;8.73;6.07;;;40.20;17.10;;;;;;5045846;28;20234;-72
2022/03/02 11:45:07;;;;;;;8.13;6.03;;;40.50;17.20;;;;;;5050330;28;20260;-71
2022/03/02 11:47:35;;;;;;;9.07;5.82;;;41.40;17.00;;;;;;5055493;28;20828;-70
2022/03/02 11:50:05;;;;;;;7.35;5.50;;;42.50;16.50;;;;;;5059234;28;20252;-72
2022/03/02 11:52:34;;;;;;;7.15;6.07;;;43.40;16.20;;;;;;5059062;28;20201;-70
2022/03/02 11:55:06;;;;;;;8.48;5.57;;;43.50;16.10;;;;;;5059576;28;20206;-70
2022/03/02 11:57:39;;;;;;;7.57;5.50;;;43.60;16.10;;;;;;5065635;28;20205;-70
2022/03/02 12:00:13;;;;;;;10.20;5.60;;;43.60;16.00;;;;;;5057460;28;20377;-67
2022/03/02 12:02:45;;;;;;;6.70;5.90;;;42.80;15.70;;;;;;5065115;28;20225;-69
2022/03/02 12:05:14;;;;;;;6.57;5.55;;;41.90;16.20;;;;;;5048103;28;20229;-68
2022/03/02 12:07:42;;;;;;;6.05;4.75;;;41.70;16.20;;;;;;5062335;28;20201;-68
2022/03/02 12:10:18;;;;;;;7.93;5.63;;;41.70;16.60;;;;;;5058705;28;20333;-72
2022/03/02 12:12:46;;;;;;;9.13;5.43;;;41.50;17.50;;;;;;5056720;28;20217;-72
2022/03/02 12:15:13;;;;;;;7.18;5.38;;;40.70;17.00;;;;;;5053192;28;20259;-73
2022/03/02 12:17:41;;;;;;;6.97;5.50;;;39.30;17.80;;;;;;5051497;28;20201;-73
2022/03/02 12:20:10;;;;;;;8.52;5.57;;;39.70;17.50;;;;;;5057471;28;20273;-70
2022/03/02 12:22:39;;;;;;;6.20;5.38;;;39.80;17.20;;;;;;5056138;28;20415;-71
2022/03/02 12:25:08;;;;;;;7.97;5.80;;;40.60;16.80;;;;;;5051066;28;20253;-72
2022/03/02 12:27:35;;;;;;;6.50;5.78;;;41.70;16.50;;;;;;5049790;28;20206;-71
2022/03/02 12:30:07;;;;;;;7.53;5.75;;;42.60;16.10;;;;;;5050828;28;20224;-72
2022/03/02 12:32:36;;;;;;;9.40;5.40;;;43.20;15.80;;;;;;5053515;28;20206;-74
2022/03/02 12:35:07;;;;;;;6.85;5.43;;;43.00;15.90;;;;;;5056837;28;20198;-72
2022/03/02 12:37:35;;;;;;;6.07;5.22;;;43.10;15.90;;;;;;5058638;28;20198;-70
2022/03/02 12:40:04;;;;;;;9.43;5.15;;;43.20;15.70;;;;;;5049692;28;20658;-70
2022/03/02 12:42:31;;;;;;;5.70;5.00;;;43.40;15.80;;;;;;5057336;28;20285;-71
2022/03/02 12:44:58;;;;;;;7.20;5.75;;;43.80;16.10;;;;;;5062529;28;20268;-71